Time;durP1;ratioP1;P1;durP2;ratioP2;P2;SDS_P1;SDS_P2;PMS_P1;PMS_P2;Temp;Humidity;BMP_temperature;BMP_pressure;BME280_temperature;BME280_humidity;BME280_pressure;Samples;Min_cycle;Max_cycle;Signal;HPM_P1;HPM_P2
2022/08/23 00:01:29;;;;;;;;;;;22.60;60.90;;;;;;5037908;28;19913;-67
2022/08/23 00:03:56;;;;;;;;;;;22.60;61.00;;;;;;5037163;28;19972;-67
2022/08/23 00:06:22;;;;;;;;;;;22.60;61.10;;;;;;5048872;28;19992;-67
2022/08/23 00:08:48;;;;;;;;;;;22.50;61.10;;;;;;5049043;28;20043;-67
2022/08/23 00:11:26;;;;;;;;;;;22.50;61.20;;;;;;5031550;28;19913;-67
2022/08/23 00:13:52;;;;;;;;;;;22.40;61.30;;;;;;5038480;28;19913;-68
2022/08/23 00:16:20;;;;;;;;;;;22.40;61.40;;;;;;5031080;28;19936;-68
2022/08/23 00:18:46;;;;;;;;;;;22.30;61.40;;;;;;5014919;28;20021;-68
2022/08/23 00:21:12;;;;;;;;;;;22.30;61.60;;;;;;5048566;28;19948;-68
2022/08/23 00:23:38;;;;;;;;;;;22.30;61.80;;;;;;5037225;28;20423;-68
2022/08/23 00:26:04;;;;;;;;;;;22.20;62.20;;;;;;5028634;28;19917;-68
2022/08/23 00:28:30;;;;;;;;;;;22.10;62.30;;;;;;5031109;28;20296;-68
2022/08/23 00:30:56;;;;;;;;;;;22.00;62.40;;;;;;5030925;28;19921;-68
2022/08/23 00:33:22;;;;;;;;;;;22.00;62.50;;;;;;5040530;28;19913;-68
2022/08/23 00:35:47;;;;;;;;;;;22.00;62.80;;;;;;5032810;28;19914;-68
2022/08/23 00:38:13;;;;;;;;;;;21.90;62.90;;;;;;5022962;28;19913;-68
2022/08/23 00:40:39;;;;;;;;;;;21.90;62.90;;;;;;5029036;28;19971;-68
2022/08/23 00:48:45;;;;;;;;;;;21.80;63.00;;;;;;5036924;28;19974;-68
2022/08/23 00:51:11;;;;;;;;;;;21.70;63.10;;;;;;5046150;28;20374;-68
2022/08/23 00:53:39;;;;;;;;;;;21.70;63.40;;;;;;5043025;28;19909;-68
2022/08/23 00:56:07;;;;;;;;;;;21.60;63.50;;;;;;5037871;28;19913;-68
2022/08/23 00:58:33;;;;;;;;;;;21.60;63.80;;;;;;5026720;28;19909;-68
2022/08/23 01:01:00;;;;;;;;;;;21.60;63.80;;;;;;5046412;28;20256;-65
2022/08/23 01:03:27;;;;;;;;;;;21.50;63.90;;;;;;5036691;28;19913;-65
2022/08/23 01:05:53;;;;;;;;;;;21.50;63.90;;;;;;5041080;28;19921;-68
2022/08/23 01:08:22;;;;;;;;;;;21.50;63.90;;;;;;5033575;28;19913;-68
2022/08/23 01:10:50;;;;;;;;;;;21.50;64.00;;;;;;5044618;28;19917;-68
2022/08/23 01:13:18;;;;;;;;;;;21.40;64.20;;;;;;5046625;28;20359;-67
2022/08/23 01:15:55;;;;;;;;;;;21.40;64.30;;;;;;5051500;28;19913;-65
2022/08/23 01:18:23;;;;;;;;;;;21.30;64.40;;;;;;5044617;28;19909;-66
2022/08/23 01:21:15;;;;;;;;;;;21.30;64.40;;;;;;5044144;28;20113;-65
2022/08/23 01:23:43;;;;;;;;;;;21.30;64.50;;;;;;5045331;28;19920;-67
2022/08/23 01:26:10;;;;;;;;;;;21.20;64.70;;;;;;5052249;28;19912;-67
2022/08/23 01:28:36;;;;;;;;;;;21.10;64.80;;;;;;5046833;28;19984;-65
2022/08/23 01:31:02;;;;;;;;;;;21.10;65.00;;;;;;5046573;28;20395;-65
2022/08/23 01:33:28;;;;;;;;;;;21.10;65.00;;;;;;5051243;28;20284;-65
2022/08/23 01:35:55;;;;;;;;;;;21.00;65.10;;;;;;5039036;28;19961;-66
2022/08/23 01:38:21;;;;;;;;;;;21.00;65.10;;;;;;5050946;28;20462;-65
2022/08/23 01:40:47;;;;;;;;;;;21.00;65.20;;;;;;5047727;28;20023;-65
2022/08/23 01:43:12;;;;;;;;;;;21.00;65.30;;;;;;5039133;28;19920;-65
2022/08/23 01:45:39;;;;;;;;;;;20.90;65.50;;;;;;5050680;28;19908;-65
2022/08/23 01:48:04;;;;;;;;;;;20.90;65.60;;;;;;5050696;28;20010;-65
2022/08/23 01:50:33;;;;;;;;;;;20.90;65.70;;;;;;5037519;28;19960;-65
2022/08/23 01:52:58;;;;;;;;;;;20.80;65.80;;;;;;5036745;28;19916;-65
2022/08/23 01:55:24;;;;;;;;;;;20.80;65.90;;;;;;5037233;28;19970;-65
2022/08/23 01:57:52;;;;;;;;;;;20.80;66.00;;;;;;5037617;28;20474;-65
2022/08/23 02:00:19;;;;;;;;;;;20.80;66.10;;;;;;5032503;28;20284;-66
2022/08/23 02:02:45;;;;;;;;;;;20.70;66.10;;;;;;5047155;28;19921;-65
2022/08/23 02:05:11;;;;;;;;;;;20.70;66.20;;;;;;5040608;28;19917;-65
2022/08/23 02:07:36;;;;;;;;;;;20.70;66.30;;;;;;5050759;28;20352;-65
2022/08/23 02:10:03;;;;;;;;;;;20.70;66.30;;;;;;5050449;28;20011;-67
2022/08/23 02:12:28;;;;;;;;;;;20.60;66.40;;;;;;5037601;28;19916;-65
2022/08/23 02:14:54;;;;;;;;;;;20.60;66.50;;;;;;5050153;28;19917;-65
2022/08/23 02:17:20;;;;;;;;;;;20.60;66.60;;;;;;5032219;28;19948;-65
2022/08/23 02:19:46;;;;;;;;;;;20.60;66.70;;;;;;5045074;28;19913;-65
2022/08/23 02:22:12;;;;;;;;;;;20.50;66.70;;;;;;5028123;28;20383;-65
2022/08/23 02:24:39;;;;;;;;;;;20.50;66.60;;;;;;5039414;28;19934;-67
2022/08/23 02:27:04;;;;;;;;;;;20.50;66.60;;;;;;5050422;28;19986;-67
2022/08/23 02:29:30;;;;;;;;;;;20.50;66.60;;;;;;5050221;28;19917;-67
2022/08/23 02:31:57;;;;;;;;;;;20.50;66.70;;;;;;5038274;28;19913;-67
2022/08/23 02:34:23;;;;;;;;;;;20.50;66.90;;;;;;5046796;28;19979;-65
2022/08/23 02:36:48;;;;;;;;;;;20.40;67.00;;;;;;5030234;28;19921;-66
2022/08/23 02:39:15;;;;;;;;;;;20.40;67.10;;;;;;5024175;28;19924;-65
2022/08/23 02:41:41;;;;;;;;;;;20.40;67.20;;;;;;5025619;28;20007;-66
2022/08/23 02:44:07;;;;;;;;;;;20.40;67.30;;;;;;5010888;28;20016;-67
2022/08/23 02:46:32;;;;;;;;;;;20.40;67.50;;;;;;5026927;28;19917;-67
2022/08/23 02:48:58;;;;;;;;;;;20.30;67.40;;;;;;5010328;28;19917;-65
2022/08/23 02:51:25;;;;;;;;;;;20.30;67.40;;;;;;5012069;28;19968;-65
2022/08/23 02:53:50;;;;;;;;;;;20.30;67.40;;;;;;5032539;28;19913;-65
2022/08/23 02:56:16;;;;;;;;;;;20.30;67.30;;;;;;5037624;28;19913;-65
2022/08/23 02:58:44;;;;;;;;;;;20.30;67.40;;;;;;5044783;28;19944;-65
2022/08/23 03:01:19;;;;;;;;;;;20.30;67.50;;;;;;5027062;28;19984;-65
2022/08/23 03:03:45;;;;;;;;;;;20.30;67.60;;;;;;5028893;28;19942;-66
2022/08/23 03:06:12;;;;;;;;;;;20.30;67.70;;;;;;5026785;28;19948;-65
2022/08/23 03:08:37;;;;;;;;;;;20.30;67.80;;;;;;5031347;28;19913;-65
2022/08/23 03:11:09;;;;;;;;;;;20.20;67.90;;;;;;5029583;28;19917;-67
2022/08/23 03:13:35;;;;;;;;;;;20.20;68.00;;;;;;5028888;28;20015;-67
2022/08/23 03:16:00;;;;;;;;;;;20.20;68.10;;;;;;5026402;28;19921;-67
2022/08/23 03:18:26;;;;;;;;;;;20.20;68.10;;;;;;5029281;28;19936;-67
2022/08/23 03:20:51;;;;;;;;;;;20.10;68.10;;;;;;5030719;28;19991;-65
2022/08/23 03:23:17;;;;;;;;;;;20.20;68.10;;;;;;5028199;28;19947;-65
2022/08/23 03:25:42;;;;;;;;;;;20.10;68.10;;;;;;5033325;28;19960;-65
2022/08/23 03:28:08;;;;;;;;;;;20.10;68.10;;;;;;5030528;28;19926;-65
2022/08/23 03:30:34;;;;;;;;;;;20.10;68.20;;;;;;5029360;28;19928;-66
2022/08/23 03:33:00;;;;;;;;;;;20.10;68.20;;;;;;5029560;28;19967;-67
2022/08/23 03:35:26;;;;;;;;;;;20.00;68.30;;;;;;5028153;28;19913;-65
2022/08/23 03:37:52;;;;;;;;;;;20.00;68.40;;;;;;5015612;28;20008;-65
2022/08/23 03:40:19;;;;;;;;;;;19.90;68.40;;;;;;5029333;28;19913;-68
2022/08/23 03:42:45;;;;;;;;;;;19.90;68.40;;;;;;5011458;28;19917;-66
2022/08/23 03:45:10;;;;;;;;;;;19.90;68.50;;;;;;5027070;28;19925;-65
2022/08/23 03:47:36;;;;;;;;;;;19.90;68.60;;;;;;5029322;28;19905;-65
2022/08/23 03:50:02;;;;;;;;;;;19.80;68.50;;;;;;5029056;28;19913;-65
2022/08/23 03:52:27;;;;;;;;;;;19.80;68.60;;;;;;5029209;28;19952;-65
2022/08/23 03:54:53;;;;;;;;;;;19.80;68.70;;;;;;5024053;28;19918;-65
2022/08/23 03:57:21;;;;;;;;;;;19.70;68.60;;;;;;5020373;28;20025;-65
2022/08/23 03:59:47;;;;;;;;;;;19.70;68.60;;;;;;5033288;28;20272;-67
2022/08/23 04:02:26;;;;;;;;;;;19.70;68.80;;;;;;5050280;28;19944;-67
2022/08/23 04:04:52;;;;;;;;;;;19.70;68.90;;;;;;5034590;28;19918;-68
2022/08/23 04:07:19;;;;;;;;;;;19.60;69.00;;;;;;5032103;28;19921;-65
2022/08/23 04:09:45;;;;;;;;;;;19.60;69.10;;;;;;5041669;28;19916;-65
2022/08/23 04:12:11;;;;;;;;;;;19.60;69.10;;;;;;5052974;28;19917;-66
2022/08/23 04:14:36;;;;;;;;;;;19.60;69.10;;;;;;5053228;28;20027;-65
2022/08/23 04:17:02;;;;;;;;;;;19.50;69.10;;;;;;5028725;28;20300;-67
2022/08/23 04:19:27;;;;;;;;;;;19.50;69.30;;;;;;5027171;28;20387;-67
2022/08/23 04:21:53;;;;;;;;;;;19.50;69.50;;;;;;5047259;28;19921;-67
2022/08/23 04:24:19;;;;;;;;;;;19.50;69.60;;;;;;5052709;28;19916;-68
2022/08/23 04:26:44;;;;;;;;;;;19.50;69.70;;;;;;5051564;28;19923;-67
2022/08/23 04:29:13;;;;;;;;;;;19.50;69.80;;;;;;5032003;28;19971;-67
2022/08/23 04:31:38;;;;;;;;;;;19.50;69.80;;;;;;5032483;28;19943;-67
2022/08/23 04:34:04;;;;;;;;;;;19.50;69.80;;;;;;5033192;28;20047;-67
2022/08/23 04:36:33;;;;;;;;;;;19.50;69.80;;;;;;5034217;28;19917;-67
2022/08/23 04:38:58;;;;;;;;;;;19.50;69.80;;;;;;5033238;28;19971;-67
2022/08/23 04:44:08;;;;;;;;;;;19.50;69.90;;;;;;5036209;28;19963;-68
2022/08/23 04:46:34;;;;;;;;;;;19.50;70.10;;;;;;5034425;28;19921;-67
2022/08/23 04:49:00;;;;;;;;;;;19.50;70.20;;;;;;5027414;28;19924;-67
2022/08/23 04:51:25;;;;;;;;;;;19.50;70.20;;;;;;5035327;28;20359;-68
2022/08/23 04:53:51;;;;;;;;;;;19.40;70.10;;;;;;5033311;28;19913;-66
2022/08/23 04:56:16;;;;;;;;;;;19.50;70.20;;;;;;5033610;28;20007;-66
2022/08/23 04:58:42;;;;;;;;;;;19.50;70.20;;;;;;5034690;28;20262;-65
2022/08/23 05:01:09;;;;;;;;;;;19.60;70.40;;;;;;5045702;28;20065;-65
2022/08/23 05:03:35;;;;;;;;;;;19.60;70.50;;;;;;5051918;28;20291;-67
2022/08/23 05:06:03;;;;;;;;;;;19.60;70.50;;;;;;5048263;28;19917;-67
2022/08/23 05:08:30;;;;;;;;;;;19.70;70.70;;;;;;5032595;28;19913;-68
2022/08/23 05:10:58;;;;;;;;;;;19.70;70.70;;;;;;5040628;28;19915;-68
2022/08/23 05:13:23;;;;;;;;;;;19.70;70.90;;;;;;5051594;28;20257;-65
2022/08/23 05:15:50;;;;;;;;;;;19.70;71.00;;;;;;5025886;28;19932;-65
2022/08/23 05:18:15;;;;;;;;;;;19.80;70.90;;;;;;5045126;28;20359;-65
2022/08/23 05:20:41;;;;;;;;;;;19.80;70.90;;;;;;5050617;28;19917;-65
2022/08/23 05:23:06;;;;;;;;;;;19.80;70.80;;;;;;5034418;28;19912;-65
2022/08/23 05:25:50;;;;;;;;;;;19.80;70.90;;;;;;5046870;28;19921;-65
2022/08/23 05:28:46;;;;;;;;;;;19.90;71.00;;;;;;5023645;28;19932;-65
2022/08/23 05:31:14;;;;;;;;;;;19.90;71.00;;;;;;5017919;28;20036;-65
2022/08/23 05:33:40;;;;;;;;;;;19.90;71.10;;;;;;5020275;28;19917;-66
2022/08/23 05:36:06;;;;;;;;;;;20.00;71.10;;;;;;5027467;28;20391;-68
2022/08/23 05:38:33;;;;;;;;;;;20.10;71.10;;;;;;5013835;28;19913;-68
2022/08/23 05:41:00;;;;;;;;;;;20.20;71.20;;;;;;5031884;28;19921;-68
2022/08/23 05:43:26;;;;;;;;;;;20.30;71.10;;;;;;5035977;28;19910;-67
2022/08/23 05:46:02;;;;;;;;;;;20.30;71.00;;;;;;5036317;28;19968;-68
2022/08/23 05:48:28;;;;;;;;;;;20.40;71.00;;;;;;5010885;28;19928;-68
2022/08/23 05:50:53;;;;;;;;;;;20.50;70.70;;;;;;5034751;28;19913;-70
2022/08/23 05:53:19;;;;;;;;;;;20.60;70.50;;;;;;5035501;28;19917;-68
2022/08/23 05:55:45;;;;;;;;;;;20.70;70.40;;;;;;5012540;28;19917;-69
2022/08/23 05:58:10;;;;;;;;;;;20.70;70.40;;;;;;5034899;28;20378;-69
2022/08/23 06:00:36;;;;;;;;;;;20.90;70.30;;;;;;5027415;28;19924;-69
2022/08/23 06:03:02;;;;;;;;;;;20.90;70.40;;;;;;5030211;28;19917;-68
2022/08/23 06:05:28;;;;;;;;;;;21.00;70.20;;;;;;5015102;28;19916;-68
2022/08/23 06:07:54;;;;;;;;;;;21.10;69.90;;;;;;5015719;28;19932;-69
2022/08/23 06:10:20;;;;;;;;;;;21.30;69.60;;;;;;5026246;28;19929;-68
2022/08/23 06:12:46;;;;;;;;;;;21.40;69.40;;;;;;5030391;28;20292;-68
2022/08/23 06:15:12;;;;;;;;;;;21.60;69.10;;;;;;5035337;28;20003;-66
2022/08/23 06:17:38;;;;;;;;;;;21.70;68.80;;;;;;5051482;28;20007;-66
2022/08/23 06:20:04;;;;;;;;;;;21.80;68.40;;;;;;5012839;28;19921;-66
2022/08/23 06:22:32;;;;;;;;;;;21.90;68.10;;;;;;5027057;28;20732;-66
2022/08/23 06:24:59;;;;;;;;;;;22.00;67.90;;;;;;5030800;28;20007;-66
2022/08/23 06:27:24;;;;;;;;;;;22.10;67.50;;;;;;5043313;28;20023;-66
2022/08/23 06:29:50;;;;;;;;;;;22.30;67.20;;;;;;5020945;28;19921;-66
2022/08/23 06:35:19;;;;;;;;;;;22.50;66.30;;;;;;5025398;28;19920;-66
2022/08/23 06:37:44;;;;;;;;;;;22.70;66.00;;;;;;5032413;28;19921;-66
2022/08/23 06:40:10;;;;;;;;;;;22.80;65.60;;;;;;5016040;28;19925;-66
2022/08/23 06:42:35;;;;;;;;;;;22.90;64.80;;;;;;5037482;28;20440;-66
2022/08/23 06:45:01;;;;;;;;;;;23.10;64.50;;;;;;5034741;28;20443;-66
2022/08/23 06:47:27;;;;;;;;;;;23.20;64.30;;;;;;5013423;28;19924;-68
2022/08/23 06:49:53;;;;;;;;;;;23.30;63.90;;;;;;5032823;28;19917;-67
2022/08/23 06:52:18;;;;;;;;;;;23.40;63.80;;;;;;5004943;28;20273;-66
2022/08/23 06:54:46;;;;;;;;;;;23.40;62.90;;;;;;5041922;28;19921;-67
2022/08/23 06:57:12;;;;;;;;;;;23.50;63.00;;;;;;5030194;28;19913;-66
2022/08/23 06:59:37;;;;;;;;;;;23.50;62.60;;;;;;5031186;28;20241;-66
2022/08/23 07:02:04;;;;;;;;;;;23.60;62.60;;;;;;5049275;28;20128;-66
2022/08/23 07:04:31;;;;;;;;;;;23.70;62.50;;;;;;5019910;28;19918;-67
2022/08/23 07:06:57;;;;;;;;;;;23.80;62.50;;;;;;5024137;28;19958;-66
2022/08/23 07:09:23;;;;;;;;;;;23.90;62.20;;;;;;5031442;28;19921;-66
2022/08/23 07:11:49;;;;;;;;;;;23.90;62.20;;;;;;5033129;28;20316;-66
2022/08/23 07:14:15;;;;;;;;;;;23.90;62.20;;;;;;5017341;28;20408;-66
2022/08/23 07:16:49;;;;;;;;;;;23.90;62.20;;;;;;5030868;28;19967;-67
2022/08/23 07:19:16;;;;;;;;;;;23.90;62.10;;;;;;5028792;28;20346;-66
2022/08/23 07:21:42;;;;;;;;;;;23.90;62.10;;;;;;5013770;28;20365;-66
2022/08/23 07:24:08;;;;;;;;;;;23.90;62.10;;;;;;5016097;28;19913;-66
2022/08/23 07:26:34;;;;;;;;;;;24.00;61.90;;;;;;5014147;28;19921;-66
2022/08/23 07:29:02;;;;;;;;;;;24.00;61.30;;;;;;5033502;28;19929;-66
2022/08/23 07:31:30;;;;;;;;;;;24.00;61.20;;;;;;5031395;28;19917;-66
2022/08/23 07:34:00;;;;;;;;;;;24.10;61.20;;;;;;5032670;28;19909;-66
2022/08/23 07:36:26;;;;;;;;;;;24.10;61.00;;;;;;5002467;28;20253;-66
2022/08/23 07:38:52;;;;;;;;;;;24.20;60.70;;;;;;5031702;28;19913;-66
2022/08/23 07:41:17;;;;;;;;;;;24.20;60.50;;;;;;5032658;28;19929;-66
2022/08/23 07:43:43;;;;;;;;;;;24.30;60.50;;;;;;5031337;28;19920;-66
2022/08/23 07:46:09;;;;;;;;;;;24.40;60.50;;;;;;5013646;28;19913;-66
2022/08/23 07:48:35;;;;;;;;;;;24.40;60.30;;;;;;5013516;28;19917;-66
2022/08/23 07:51:01;;;;;;;;;;;24.50;59.90;;;;;;5012696;28;20403;-66
2022/08/23 07:53:27;;;;;;;;;;;24.50;59.40;;;;;;5013337;28;19996;-66
2022/08/23 07:55:54;;;;;;;;;;;24.50;58.60;;;;;;5031945;28;20053;-66
2022/08/23 07:58:20;;;;;;;;;;;24.60;58.80;;;;;;5032452;28;19917;-66
2022/08/23 08:00:45;;;;;;;;;;;24.70;58.80;;;;;;5039530;28;19966;-66
2022/08/23 08:03:12;;;;;;;;;;;24.80;58.80;;;;;;5038705;28;19943;-69
2022/08/23 08:05:38;;;;;;;;;;;24.90;58.20;;;;;;5048987;28;20356;-69
2022/08/23 08:08:04;;;;;;;;;;;24.90;57.70;;;;;;5037221;28;19924;-69
2022/08/23 08:10:30;;;;;;;;;;;25.00;57.30;;;;;;5047811;28;19912;-69
2022/08/23 08:12:56;;;;;;;;;;;25.10;57.50;;;;;;5021123;28;19916;-69
2022/08/23 08:15:22;;;;;;;;;;;25.20;56.90;;;;;;5045600;28;19921;-69
2022/08/23 08:17:48;;;;;;;;;;;25.20;56.50;;;;;;5015571;28;19924;-69
2022/08/23 08:20:14;;;;;;;;;;;25.30;56.80;;;;;;5032447;28;19931;-69
2022/08/23 08:22:40;;;;;;;;;;;25.40;56.80;;;;;;5035733;28;20280;-69
2022/08/23 08:25:07;;;;;;;;;;;25.50;56.90;;;;;;5041287;28;19996;-69
2022/08/23 08:27:32;;;;;;;;;;;25.60;56.30;;;;;;5029494;28;19939;-69
2022/08/23 08:29:58;;;;;;;;;;;25.70;55.30;;;;;;5029284;28;20368;-69
2022/08/23 08:32:23;;;;;;;;;;;25.80;55.20;;;;;;5031810;28;20383;-69
2022/08/23 08:34:49;;;;;;;;;;;25.90;55.40;;;;;;5048603;28;19917;-69
2022/08/23 08:37:14;;;;;;;;;;;26.00;55.30;;;;;;5049349;28;19939;-69
2022/08/23 08:39:44;;;;;;;;;;;26.10;54.90;;;;;;5049464;28;19913;-69
2022/08/23 08:42:21;;;;;;;;;;;26.20;55.00;;;;;;5049656;28;19921;-69
2022/08/23 08:44:50;;;;;;;;;;;26.30;54.90;;;;;;5049196;28;19909;-69
2022/08/23 08:47:39;;;;;;;;;;;26.40;54.90;;;;;;5035817;28;20000;-69
2022/08/23 08:50:09;;;;;;;;;;;26.50;54.30;;;;;;5028706;28;19921;-67
2022/08/23 08:52:38;;;;;;;;;;;26.60;54.50;;;;;;5023017;28;19917;-66
2022/08/23 08:55:16;;;;;;;;;;;26.70;54.50;;;;;;5033455;28;20436;-66
2022/08/23 08:57:46;;;;;;;;;;;26.90;54.10;;;;;;5030109;28;19917;-66
2022/08/23 09:00:18;;;;;;;;;;;27.00;53.70;;;;;;5037427;28;19913;-66
2022/08/23 09:02:45;;;;;;;;;;;27.10;53.70;;;;;;5038467;28;20339;-66
2022/08/23 09:05:10;;;;;;;;;;;27.20;53.70;;;;;;5031735;28;19924;-69
2022/08/23 09:07:43;;;;;;;;;;;27.30;53.60;;;;;;5038541;28;20276;-69
2022/08/23 09:10:44;;;;;;;;;;;27.30;52.10;;;;;;5031163;28;20014;-66
2022/08/23 09:13:17;;;;;;;;;;;27.30;51.40;;;;;;4991210;28;20452;-66
2022/08/23 09:16:02;;;;;;;;;;;27.30;51.90;;;;;;5010674;28;19914;-67
2022/08/23 09:18:31;;;;;;;;;;;27.50;51.70;;;;;;5019881;28;19981;-66
2022/08/23 09:20:57;;;;;;;;;;;27.60;50.90;;;;;;5025069;28;19917;-66
2022/08/23 09:23:26;;;;;;;;;;;27.70;50.30;;;;;;5035411;28;19932;-67
2022/08/23 09:25:56;;;;;;;;;;;27.70;49.80;;;;;;5044307;28;20281;-66
2022/08/23 09:28:22;;;;;;;;;;;27.80;49.60;;;;;;5032874;28;20287;-67
2022/08/23 09:30:50;;;;;;;;;;;27.90;49.90;;;;;;5042130;28;19925;-66
2022/08/23 09:33:18;;;;;;;;;;;28.00;50.00;;;;;;5031929;28;19913;-66
2022/08/23 09:36:00;;;;;;;;;;;28.10;49.20;;;;;;5036485;28;19925;-66
2022/08/23 09:38:28;;;;;;;;;;;28.30;49.00;;;;;;5039328;28;19912;-66
2022/08/23 09:40:54;;;;;;;;;;;28.40;48.50;;;;;;5039398;28;20410;-67
2022/08/23 09:43:24;;;;;;;;;;;28.50;47.70;;;;;;5021691;28;19925;-66
2022/08/23 09:45:50;;;;;;;;;;;28.60;47.50;;;;;;5030743;28;19924;-66
2022/08/23 09:48:36;;;;;;;;;;;28.80;47.60;;;;;;5044528;28;20276;-66
2022/08/23 09:51:15;;;;;;;;;;;28.90;46.10;;;;;;5025112;28;20004;-66
2022/08/23 09:53:44;;;;;;;;;;;29.00;46.40;;;;;;5034882;28;19917;-66
2022/08/23 09:56:12;;;;;;;;;;;29.30;46.80;;;;;;5031932;28;19917;-67
2022/08/23 09:58:39;;;;;;;;;;;29.50;46.80;;;;;;5037279;28;19923;-66
2022/08/23 10:01:08;;;;;;;;;;;29.60;46.30;;;;;;5038148;28;19921;-66
2022/08/23 10:03:33;;;;;;;;;;;29.80;46.10;;;;;;5040314;28;20381;-66
2022/08/23 10:06:00;;;;;;;;;;;29.80;46.30;;;;;;5047819;28;20364;-66
2022/08/23 10:08:27;;;;;;;;;;;29.60;46.00;;;;;;5040411;28;19979;-66
2022/08/23 10:10:55;;;;;;;;;;;29.50;46.10;;;;;;5040040;28;19986;-66
2022/08/23 10:13:21;;;;;;;;;;;29.50;46.40;;;;;;5049113;28;19909;-66
2022/08/23 10:15:53;;;;;;;;;;;29.50;45.30;;;;;;5049074;28;19971;-67
2022/08/23 10:18:23;;;;;;;;;;;29.50;45.00;;;;;;5028081;28;19913;-66
2022/08/23 10:20:49;;;;;;;;;;;29.60;44.90;;;;;;5047619;28;19947;-66
2022/08/23 10:23:14;;;;;;;;;;;29.50;44.10;;;;;;5041342;28;19913;-67
2022/08/23 10:25:52;;;;;;;;;;;29.50;43.50;;;;;;5047417;28;20371;-67
2022/08/23 10:31:12;;;;;;;;;;;29.90;42.60;;;;;;5038639;28;19965;-67
2022/08/23 10:33:43;;;;;;;;;;;30.10;42.60;;;;;;5041389;28;19920;-67
2022/08/23 10:36:11;;;;;;;;;;;30.40;41.90;;;;;;5036971;28;20285;-67
2022/08/23 10:38:56;;;;;;;;;;;30.60;42.20;;;;;;5049396;28;19970;-67
2022/08/23 10:41:37;;;;;;;;;;;31.00;42.50;;;;;;5036465;28;19959;-67
2022/08/23 10:44:09;;;;;;;;;;;31.20;41.80;;;;;;5045858;28;19967;-67
2022/08/23 10:46:38;;;;;;;;;;;31.30;41.80;;;;;;5028822;28;19974;-67
2022/08/23 10:49:06;;;;;;;;;;;31.20;41.80;;;;;;5039821;28;19959;-67
2022/08/23 10:51:36;;;;;;;;;;;31.10;42.30;;;;;;5045566;28;20004;-67
2022/08/23 10:54:05;;;;;;;;;;;30.90;42.60;;;;;;5047316;28;20284;-67
2022/08/23 10:56:30;;;;;;;;;;;30.80;42.90;;;;;;5046736;28;19919;-67
2022/08/23 10:58:58;;;;;;;;;;;30.90;41.90;;;;;;5047997;28;19913;-67
2022/08/23 11:01:42;;;;;;;;;;;31.00;41.80;;;;;;5029674;28;20364;-66
2022/08/23 11:04:17;;;;;;;;;;;31.20;41.40;;;;;;5042729;28;20751;-67
2022/08/23 11:06:45;;;;;;;;;;;31.40;41.20;;;;;;5044338;28;20003;-67
2022/08/23 11:09:17;;;;;;;;;;;31.60;40.40;;;;;;5041656;28;19935;-66
2022/08/23 11:12:01;;;;;;;;;;;31.70;40.20;;;;;;5039873;28;19955;-66
2022/08/23 11:14:29;;;;;;;;;;;31.90;39.70;;;;;;5049342;28;19913;-67
2022/08/23 11:17:00;;;;;;;;;;;32.00;39.70;;;;;;5022782;28;19991;-67
2022/08/23 11:19:46;;;;;;;;;;;32.00;38.90;;;;;;5048791;28;19915;-67
2022/08/23 11:22:17;;;;;;;;;;;31.70;39.40;;;;;;5031502;28;20003;-67
2022/08/23 11:25:09;;;;;;;;;;;31.70;39.40;;;;;;5049183;28;19954;-66
2022/08/23 11:27:34;;;;;;;;;;;31.50;39.80;;;;;;5025540;28;19923;-67
2022/08/23 11:30:18;;;;;;;;;;;31.60;39.70;;;;;;5049583;28;20276;-67
2022/08/23 11:32:45;;;;;;;;;;;31.90;40.10;;;;;;5049392;28;19913;-66
2022/08/23 11:35:26;;;;;;;;;;;32.30;39.80;;;;;;5049215;28;19954;-67
2022/08/23 11:37:55;;;;;;;;;;;32.50;38.30;;;;;;5031357;28;19909;-66
2022/08/23 11:40:36;;;;;;;;;;;32.60;37.40;;;;;;5046731;28;20341;-67
2022/08/23 11:43:24;;;;;;;;;;;32.70;37.50;;;;;;5049259;28;19974;-67
2022/08/23 11:45:49;;;;;;;;;;;32.90;38.70;;;;;;5049485;28;19912;-67
2022/08/23 11:48:18;;;;;;;;;;;33.10;37.00;;;;;;5033094;28;19913;-67
2022/08/23 11:50:43;;;;;;;;;;;33.30;37.50;;;;;;5030507;28;19924;-67
2022/08/23 11:53:11;;;;;;;;;;;33.50;37.20;;;;;;5049540;28;19912;-67
2022/08/23 11:55:41;;;;;;;;;;;33.60;36.80;;;;;;5049314;28;20399;-67
2022/08/23 11:58:06;;;;;;;;;;;33.70;37.20;;;;;;5050592;28;20377;-71
2022/08/23 12:00:50;;;;;;;;;;;33.80;36.30;;;;;;5025435;28;20011;-70
2022/08/23 12:03:19;;;;;;;;;;;33.80;36.60;;;;;;5043736;28;19908;-70
2022/08/23 12:05:50;;;;;;;;;;;33.90;36.90;;;;;;5036850;28;19913;-71
2022/08/23 12:08:19;;;;;;;;;;;34.00;36.40;;;;;;5035914;28;19940;-70
2022/08/23 12:10:45;;;;;;;;;;;33.80;36.20;;;;;;5038970;28;19917;-70
2022/08/23 12:13:16;;;;;;;;;;;33.70;36.90;;;;;;5028141;28;19917;-70
2022/08/23 12:16:01;;;;;;;;;;;33.80;36.50;;;;;;5030262;28;19909;-71
2022/08/23 12:18:26;;;;;;;;;;;33.90;36.60;;;;;;5025716;28;19959;-70
2022/08/23 12:20:56;;;;;;;;;;;34.00;36.30;;;;;;5049389;28;19921;-70
2022/08/23 12:23:22;;;;;;;;;;;33.80;37.00;;;;;;5037368;28;20000;-70
2022/08/23 12:25:57;;;;;;;;;;;33.50;37.00;;;;;;5037110;28;20009;-70
2022/08/23 12:28:30;;;;;;;;;;;33.10;37.40;;;;;;5030630;28;20556;-70
2022/08/23 12:30:58;;;;;;;;;;;33.10;37.30;;;;;;5041363;28;19909;-70
2022/08/23 12:33:36;;;;;;;;;;;33.20;37.40;;;;;;5039015;28;19917;-67
2022/08/23 12:36:08;;;;;;;;;;;33.30;37.10;;;;;;5041822;28;19941;-67
2022/08/23 12:38:33;;;;;;;;;;;33.60;37.50;;;;;;5038041;28;20363;-70
2022/08/23 12:41:10;;;;;;;;;;;33.80;36.70;;;;;;5041944;28;19917;-67
2022/08/23 12:43:36;;;;;;;;;;;34.00;36.60;;;;;;5033013;28;19913;-67
2022/08/23 12:46:01;;;;;;;;;;;33.90;36.70;;;;;;5045403;28;19978;-66
2022/08/23 12:48:29;;;;;;;;;;;33.70;37.40;;;;;;5048533;28;19935;-67
2022/08/23 12:51:00;;;;;;;;;;;33.50;37.40;;;;;;5042927;28;19969;-66
2022/08/23 12:53:36;;;;;;;;;;;33.60;37.70;;;;;;5043624;28;19916;-67
2022/08/23 12:56:22;;;;;;;;;;;33.80;37.90;;;;;;5038851;28;20276;-67
2022/08/23 12:58:52;;;;;;;;;;;34.10;37.60;;;;;;5046366;28;19908;-67
2022/08/23 13:01:20;;;;;;;;;;;33.90;36.20;;;;;;5049235;28;20371;-67
2022/08/23 13:03:49;;;;;;;;;;;33.50;36.50;;;;;;5051816;28;19979;-67
2022/08/23 13:06:19;;;;;;;;;;;33.20;37.20;;;;;;5052011;28;19913;-67
2022/08/23 13:08:48;;;;;;;;;;;33.10;37.70;;;;;;5041525;28;20000;-67
2022/08/23 13:11:17;;;;;;;;;;;33.10;37.90;;;;;;5052284;28;20292;-67
2022/08/23 13:13:43;;;;;;;;;;;33.00;37.40;;;;;;5035621;28;20011;-67
2022/08/23 13:16:32;;;;;;;;;;;32.90;37.40;;;;;;5036918;28;20013;-67
2022/08/23 13:19:16;;;;;;;;;;;33.10;37.60;;;;;;5021377;28;19963;-67
2022/08/23 13:21:42;;;;;;;;;;;33.40;37.10;;;;;;5047076;28;19913;-67
2022/08/23 13:24:32;;;;;;;;;;;33.30;37.40;;;;;;5028222;28;20376;-67
2022/08/23 13:27:13;;;;;;;;;;;33.00;37.80;;;;;;5045130;28;19925;-67
2022/08/23 13:30:08;;;;;;;;;;;32.60;38.20;;;;;;5043156;28;19925;-66
2022/08/23 13:32:33;;;;;;;;;;;32.40;38.70;;;;;;5007856;28;19909;-67
2022/08/23 13:35:17;;;;;;;;;;;32.30;39.00;;;;;;5049840;28;19924;-67
2022/08/23 13:37:44;;;;;;;;;;;32.10;39.20;;;;;;5048643;28;19916;-67
2022/08/23 13:40:14;;;;;;;;;;;32.10;39.50;;;;;;5028255;28;19963;-66
2022/08/23 13:42:47;;;;;;;;;;;31.90;39.80;;;;;;5043057;28;20360;-66
2022/08/23 13:45:20;;;;;;;;;;;31.80;39.90;;;;;;5050995;28;20292;-67
2022/08/23 13:47:52;;;;;;;;;;;31.80;40.10;;;;;;5032805;28;19912;-67
2022/08/23 13:50:23;;;;;;;;;;;32.00;40.30;;;;;;5050747;28;19955;-67
2022/08/23 13:52:49;;;;;;;;;;;32.40;39.80;;;;;;5049942;28;19939;-67
2022/08/23 13:55:14;;;;;;;;;;;32.70;39.10;;;;;;5051035;28;19917;-67
2022/08/23 13:57:41;;;;;;;;;;;33.20;39.00;;;;;;5041464;28;19914;-67
2022/08/23 14:00:10;;;;;;;;;;;33.60;38.80;;;;;;5051025;28;19909;-67
2022/08/23 14:02:36;;;;;;;;;;;33.60;38.20;;;;;;5051056;28;20372;-67
2022/08/23 14:05:03;;;;;;;;;;;33.50;38.20;;;;;;5050570;28;20526;-67
2022/08/23 14:07:29;;;;;;;;;;;33.30;38.30;;;;;;5043566;28;20328;-71
2022/08/23 14:09:56;;;;;;;;;;;33.40;38.60;;;;;;5045553;28;20019;-71
2022/08/23 14:12:23;;;;;;;;;;;33.60;38.50;;;;;;5027918;28;20299;-71
2022/08/23 14:14:49;;;;;;;;;;;34.10;37.70;;;;;;5031411;28;19910;-71
2022/08/23 14:17:14;;;;;;;;;;;34.40;37.60;;;;;;5035904;28;20330;-71
2022/08/23 14:19:42;;;;;;;;;;;34.70;37.40;;;;;;5041431;28;19909;-71
2022/08/23 14:22:08;;;;;;;;;;;34.80;37.10;;;;;;5033980;28;20007;-71
2022/08/23 14:24:33;;;;;;;;;;;34.90;36.60;;;;;;5051394;28;20011;-71
2022/08/23 14:26:59;;;;;;;;;;;35.00;36.10;;;;;;5020040;28;19921;-71
2022/08/23 14:29:26;;;;;;;;;;;34.90;36.10;;;;;;5033409;28;19968;-71
2022/08/23 14:31:52;;;;;;;;;;;34.90;36.40;;;;;;5038656;28;19913;-71
2022/08/23 14:34:19;;;;;;;;;;;35.00;36.50;;;;;;5030600;28;19936;-71
2022/08/23 14:36:44;;;;;;;;;;;35.30;36.50;;;;;;5024233;28;19914;-71
2022/08/23 14:39:10;;;;;;;;;;;35.30;36.10;;;;;;5028507;28;19928;-71